sensor_id;sensor_type;location;lat;lon;timestamp;P1;durP1;ratioP1;P2;durP2;ratioP2
38853;SDS011;24606;51.992;4.198;2023-03-14T00:01:47;17.25;;;2.28;;
38853;SDS011;24606;51.992;4.198;2023-03-14T00:06:49;14.32;;;2.55;;
38853;SDS011;24606;51.992;4.198;2023-03-14T00:11:51;17.83;;;3.13;;
38853;SDS011;24606;51.992;4.198;2023-03-14T00:16:55;16.10;;;3.15;;
38853;SDS011;24606;51.992;4.198;2023-03-14T00:21:57;22.90;;;2.40;;
38853;SDS011;24606;51.992;4.198;2023-03-14T00:26:59;17.52;;;3.22;;
38853;SDS011;24606;51.992;4.198;2023-03-14T00:32:02;20.52;;;3.20;;
38853;SDS011;24606;51.992;4.198;2023-03-14T00:37:04;16.65;;;2.28;;
38853;SDS011;24606;51.992;4.198;2023-03-14T00:42:06;23.58;;;2.90;;
38853;SDS011;24606;51.992;4.198;2023-03-14T00:47:09;20.40;;;3.45;;
38853;SDS011;24606;51.992;4.198;2023-03-14T00:52:11;31.30;;;5.28;;
38853;SDS011;24606;51.992;4.198;2023-03-14T00:57:13;13.88;;;2.38;;
38853;SDS011;24606;51.992;4.198;2023-03-14T01:02:17;24.75;;;3.45;;
38853;SDS011;24606;51.992;4.198;2023-03-14T01:07:18;25.63;;;4.15;;
38853;SDS011;24606;51.992;4.198;2023-03-14T01:12:20;19.88;;;2.72;;
38853;SDS011;24606;51.992;4.198;2023-03-14T01:17:24;12.10;;;2.40;;
38853;SDS011;24606;51.992;4.198;2023-03-14T01:22:26;21.73;;;2.78;;
38853;SDS011;24606;51.992;4.198;2023-03-14T01:27:27;10.43;;;2.50;;
38853;SDS011;24606;51.992;4.198;2023-03-14T01:32:31;11.02;;;2.05;;
38853;SDS011;24606;51.992;4.198;2023-03-14T01:37:32;14.55;;;2.25;;
38853;SDS011;24606;51.992;4.198;2023-03-14T01:42:35;16.92;;;2.30;;
38853;SDS011;24606;51.992;4.198;2023-03-14T01:47:38;14.15;;;3.13;;
38853;SDS011;24606;51.992;4.198;2023-03-14T01:52:41;14.23;;;2.22;;
38853;SDS011;24606;51.992;4.198;2023-03-14T01:57:48;14.55;;;2.55;;
38853;SDS011;24606;51.992;4.198;2023-03-14T02:02:54;12.07;;;1.60;;
38853;SDS011;24606;51.992;4.198;2023-03-14T02:07:59;10.98;;;2.33;;
38853;SDS011;24606;51.992;4.198;2023-03-14T02:18:06;15.40;;;2.25;;
38853;SDS011;24606;51.992;4.198;2023-03-14T02:23:09;13.25;;;1.98;;
38853;SDS011;24606;51.992;4.198;2023-03-14T02:28:13;7.05;;;1.45;;
38853;SDS011;24606;51.992;4.198;2023-03-14T02:33:17;5.82;;;1.25;;
38853;SDS011;24606;51.992;4.198;2023-03-14T02:38:22;11.27;;;2.22;;
38853;SDS011;24606;51.992;4.198;2023-03-14T02:43:31;9.18;;;1.63;;
38853;SDS011;24606;51.992;4.198;2023-03-14T02:48:33;13.07;;;1.67;;
38853;SDS011;24606;51.992;4.198;2023-03-14T02:53:40;12.80;;;2.35;;
38853;SDS011;24606;51.992;4.198;2023-03-14T02:58:44;12.85;;;2.08;;
38853;SDS011;24606;51.992;4.198;2023-03-14T03:03:46;10.73;;;2.17;;
38853;SDS011;24606;51.992;4.198;2023-03-14T03:08:48;11.60;;;2.42;;
38853;SDS011;24606;51.992;4.198;2023-03-14T03:13:51;18.95;;;2.10;;
38853;SDS011;24606;51.992;4.198;2023-03-14T03:18:53;17.08;;;2.42;;
38853;SDS011;24606;51.992;4.198;2023-03-14T03:23:55;13.98;;;3.42;;
38853;SDS011;24606;51.992;4.198;2023-03-14T03:28:58;7.10;;;1.85;;
38853;SDS011;24606;51.992;4.198;2023-03-14T03:34:00;15.55;;;2.72;;
38853;SDS011;24606;51.992;4.198;2023-03-14T03:39:01;17.13;;;2.20;;
38853;SDS011;24606;51.992;4.198;2023-03-14T03:44:05;14.15;;;2.78;;
38853;SDS011;24606;51.992;4.198;2023-03-14T03:49:07;12.50;;;3.25;;
38853;SDS011;24606;51.992;4.198;2023-03-14T03:54:08;7.75;;;1.85;;
38853;SDS011;24606;51.992;4.198;2023-03-14T03:59:12;10.85;;;2.63;;
38853;SDS011;24606;51.992;4.198;2023-03-14T04:04:14;9.82;;;1.88;;
38853;SDS011;24606;51.992;4.198;2023-03-14T04:09:16;14.00;;;1.88;;
38853;SDS011;24606;51.992;4.198;2023-03-14T04:14:19;10.40;;;1.80;;
38853;SDS011;24606;51.992;4.198;2023-03-14T04:19:21;7.72;;;2.08;;
38853;SDS011;24606;51.992;4.198;2023-03-14T04:24:23;7.50;;;2.25;;
38853;SDS011;24606;51.992;4.198;2023-03-14T04:29:26;15.90;;;2.75;;
38853;SDS011;24606;51.992;4.198;2023-03-14T04:34:28;7.03;;;2.40;;
38853;SDS011;24606;51.992;4.198;2023-03-14T04:39:30;7.63;;;1.75;;
38853;SDS011;24606;51.992;4.198;2023-03-14T04:44:34;18.13;;;4.18;;
38853;SDS011;24606;51.992;4.198;2023-03-14T04:49:35;16.45;;;2.83;;
38853;SDS011;24606;51.992;4.198;2023-03-14T04:54:37;9.07;;;2.38;;
38853;SDS011;24606;51.992;4.198;2023-03-14T04:59:40;6.75;;;1.65;;
38853;SDS011;24606;51.992;4.198;2023-03-14T05:04:42;7.38;;;2.25;;
38853;SDS011;24606;51.992;4.198;2023-03-14T05:09:44;18.20;;;3.05;;
38853;SDS011;24606;51.992;4.198;2023-03-14T05:14:47;21.48;;;2.75;;
38853;SDS011;24606;51.992;4.198;2023-03-14T05:19:49;11.90;;;2.40;;
38853;SDS011;24606;51.992;4.198;2023-03-14T05:24:51;13.23;;;2.13;;
38853;SDS011;24606;51.992;4.198;2023-03-14T05:29:58;21.40;;;2.08;;
38853;SDS011;24606;51.992;4.198;2023-03-14T05:40:01;9.35;;;1.60;;
38853;SDS011;24606;51.992;4.198;2023-03-14T05:55:10;11.23;;;1.30;;
38853;SDS011;24606;51.992;4.198;2023-03-14T06:00:14;12.65;;;1.00;;
38853;SDS011;24606;51.992;4.198;2023-03-14T06:05:16;17.90;;;1.45;;
38853;SDS011;24606;51.992;4.198;2023-03-14T06:10:18;13.40;;;1.25;;
38853;SDS011;24606;51.992;4.198;2023-03-14T06:15:22;23.45;;;4.15;;
38853;SDS011;24606;51.992;4.198;2023-03-14T06:20:24;14.13;;;3.58;;
38853;SDS011;24606;51.992;4.198;2023-03-14T06:25:25;12.95;;;2.25;;
38853;SDS011;24606;51.992;4.198;2023-03-14T06:30:29;13.70;;;2.30;;
38853;SDS011;24606;51.992;4.198;2023-03-14T06:35:31;18.95;;;2.45;;
38853;SDS011;24606;51.992;4.198;2023-03-14T06:40:33;9.77;;;1.67;;
38853;SDS011;24606;51.992;4.198;2023-03-14T06:45:36;17.08;;;2.10;;
38853;SDS011;24606;51.992;4.198;2023-03-14T06:50:38;19.33;;;1.95;;
38853;SDS011;24606;51.992;4.198;2023-03-14T06:55:40;8.65;;;1.13;;
38853;SDS011;24606;51.992;4.198;2023-03-14T07:15:27;7.88;;;1.48;;
38853;SDS011;24606;51.992;4.198;2023-03-14T07:20:29;15.23;;;1.80;;
38853;SDS011;24606;51.992;4.198;2023-03-14T07:25:32;16.58;;;2.17;;
38853;SDS011;24606;51.992;4.198;2023-03-14T07:30:35;19.80;;;2.00;;
38853;SDS011;24606;51.992;4.198;2023-03-14T07:35:37;11.52;;;1.70;;
38853;SDS011;24606;51.992;4.198;2023-03-14T07:40:39;11.40;;;1.23;;
38853;SDS011;24606;51.992;4.198;2023-03-14T07:45:44;10.82;;;1.70;;
38853;SDS011;24606;51.992;4.198;2023-03-14T07:50:48;12.18;;;2.10;;
38853;SDS011;24606;51.992;4.198;2023-03-14T07:55:50;28.45;;;3.13;;
38853;SDS011;24606;51.992;4.198;2023-03-14T08:00:54;28.35;;;3.30;;
38853;SDS011;24606;51.992;4.198;2023-03-14T08:05:56;46.70;;;6.40;;
38853;SDS011;24606;51.992;4.198;2023-03-14T08:11:01;105.68;;;11.20;;
38853;SDS011;24606;51.992;4.198;2023-03-14T08:16:06;120.85;;;14.93;;
38853;SDS011;24606;51.992;4.198;2023-03-14T08:21:08;159.57;;;21.90;;
38853;SDS011;24606;51.992;4.198;2023-03-14T08:26:10;175.90;;;20.67;;
38853;SDS011;24606;51.992;4.198;2023-03-14T08:31:13;156.02;;;20.13;;
38853;SDS011;24606;51.992;4.198;2023-03-14T08:36:15;192.90;;;19.90;;
38853;SDS011;24606;51.992;4.198;2023-03-14T08:41:17;42.80;;;8.17;;
38853;SDS011;24606;51.992;4.198;2023-03-14T08:46:20;126.65;;;21.08;;
38853;SDS011;24606;51.992;4.198;2023-03-14T08:51:22;128.57;;;16.05;;
38853;SDS011;24606;51.992;4.198;2023-03-14T08:56:24;182.87;;;22.07;;
38853;SDS011;24606;51.992;4.198;2023-03-14T09:01:27;89.33;;;13.83;;
38853;SDS011;24606;51.992;4.198;2023-03-14T09:06:30;175.70;;;22.85;;
38853;SDS011;24606;51.992;4.198;2023-03-14T09:11:32;173.70;;;22.23;;
38853;SDS011;24606;51.992;4.198;2023-03-14T09:16:35;150.33;;;20.73;;
38853;SDS011;24606;51.992;4.198;2023-03-14T09:21:37;129.70;;;17.23;;
38853;SDS011;24606;51.992;4.198;2023-03-14T09:26:39;132.65;;;18.65;;
38853;SDS011;24606;51.992;4.198;2023-03-14T09:31:42;67.07;;;10.15;;
38853;SDS011;24606;51.992;4.198;2023-03-14T09:36:44;93.45;;;13.07;;
38853;SDS011;24606;51.992;4.198;2023-03-14T09:41:46;149.30;;;20.60;;
38853;SDS011;24606;51.992;4.198;2023-03-14T09:46:52;186.88;;;24.65;;
38853;SDS011;24606;51.992;4.198;2023-03-14T09:51:56;222.45;;;31.83;;
38853;SDS011;24606;51.992;4.198;2023-03-14T09:57:00;224.65;;;28.63;;
38853;SDS011;24606;51.992;4.198;2023-03-14T10:02:13;318.02;;;40.05;;
38853;SDS011;24606;51.992;4.198;2023-03-14T10:07:18;170.88;;;20.13;;
38853;SDS011;24606;51.992;4.198;2023-03-14T10:12:30;360.60;;;48.75;;
38853;SDS011;24606;51.992;4.198;2023-03-14T10:17:39;293.60;;;40.55;;
38853;SDS011;24606;51.992;4.198;2023-03-14T10:22:42;389.30;;;50.47;;
38853;SDS011;24606;51.992;4.198;2023-03-14T10:27:45;492.48;;;64.80;;
38853;SDS011;24606;51.992;4.198;2023-03-14T10:32:48;285.27;;;39.83;;
38853;SDS011;24606;51.992;4.198;2023-03-14T10:37:51;265.90;;;29.48;;
38853;SDS011;24606;51.992;4.198;2023-03-14T10:42:56;391.13;;;55.08;;
38853;SDS011;24606;51.992;4.198;2023-03-14T10:48:13;252.07;;;28.55;;
38853;SDS011;24606;51.992;4.198;2023-03-14T10:53:22;256.77;;;30.60;;
38853;SDS011;24606;51.992;4.198;2023-03-14T10:58:25;149.15;;;17.27;;
38853;SDS011;24606;51.992;4.198;2023-03-14T11:03:29;230.35;;;25.83;;
38853;SDS011;24606;51.992;4.198;2023-03-14T11:08:35;124.13;;;16.00;;
38853;SDS011;24606;51.992;4.198;2023-03-14T11:13:44;108.13;;;17.02;;
38853;SDS011;24606;51.992;4.198;2023-03-14T11:19:12;118.22;;;14.48;;
38853;SDS011;24606;51.992;4.198;2023-03-14T11:24:33;65.38;;;9.07;;
38853;SDS011;24606;51.992;4.198;2023-03-14T11:29:47;88.70;;;11.55;;
38853;SDS011;24606;51.992;4.198;2023-03-14T11:34:58;88.60;;;10.88;;
38853;SDS011;24606;51.992;4.198;2023-03-14T11:40:06;87.40;;;11.60;;
38853;SDS011;24606;51.992;4.198;2023-03-14T11:45:15;62.75;;;8.40;;
38853;SDS011;24606;51.992;4.198;2023-03-14T11:50:22;67.20;;;8.07;;
38853;SDS011;24606;51.992;4.198;2023-03-14T11:55:28;32.83;;;3.95;;
38853;SDS011;24606;51.992;4.198;2023-03-14T12:00:34;15.50;;;3.55;;
38853;SDS011;24606;51.992;4.198;2023-03-14T12:05:39;46.80;;;6.68;;
38853;SDS011;24606;51.992;4.198;2023-03-14T12:10:48;50.08;;;6.55;;
38853;SDS011;24606;51.992;4.198;2023-03-14T12:15:53;26.83;;;3.45;;
38853;SDS011;24606;51.992;4.198;2023-03-14T12:20:59;38.33;;;6.72;;
38853;SDS011;24606;51.992;4.198;2023-03-14T12:26:12;33.90;;;4.32;;
38853;SDS011;24606;51.992;4.198;2023-03-14T12:31:36;34.03;;;5.03;;
38853;SDS011;24606;51.992;4.198;2023-03-14T12:36:56;19.00;;;3.13;;
38853;SDS011;24606;51.992;4.198;2023-03-14T12:42:03;37.33;;;4.63;;
38853;SDS011;24606;51.992;4.198;2023-03-14T12:52:44;22.70;;;3.10;;
38853;SDS011;24606;51.992;4.198;2023-03-14T12:58:22;34.95;;;4.97;;
38853;SDS011;24606;51.992;4.198;2023-03-14T13:03:38;44.90;;;5.15;;
38853;SDS011;24606;51.992;4.198;2023-03-14T13:13:55;23.42;;;2.55;;
38853;SDS011;24606;51.992;4.198;2023-03-14T13:18:59;11.35;;;2.35;;
38853;SDS011;24606;51.992;4.198;2023-03-14T13:24:06;13.95;;;2.45;;
38853;SDS011;24606;51.992;4.198;2023-03-14T13:29:20;27.17;;;2.85;;
38853;SDS011;24606;51.992;4.198;2023-03-14T13:34:25;6.10;;;1.85;;
38853;SDS011;24606;51.992;4.198;2023-03-14T13:39:28;26.48;;;3.55;;
38853;SDS011;24606;51.992;4.198;2023-03-14T13:44:31;27.77;;;2.08;;
38853;SDS011;24606;51.992;4.198;2023-03-14T13:49:35;28.98;;;3.60;;
38853;SDS011;24606;51.992;4.198;2023-03-14T13:54:40;38.45;;;2.75;;
38853;SDS011;24606;51.992;4.198;2023-03-14T13:59:42;74.78;;;6.43;;
38853;SDS011;24606;51.992;4.198;2023-03-14T14:04:44;21.42;;;1.65;;
38853;SDS011;24606;51.992;4.198;2023-03-14T14:09:48;16.63;;;2.65;;
38853;SDS011;24606;51.992;4.198;2023-03-14T14:14:53;14.63;;;2.03;;
38853;SDS011;24606;51.992;4.198;2023-03-14T14:19:57;16.80;;;3.33;;
38853;SDS011;24606;51.992;4.198;2023-03-14T14:25:02;13.23;;;1.67;;
38853;SDS011;24606;51.992;4.198;2023-03-14T14:30:05;33.03;;;2.55;;
38853;SDS011;24606;51.992;4.198;2023-03-14T14:35:26;29.58;;;2.83;;
38853;SDS011;24606;51.992;4.198;2023-03-14T14:40:34;24.00;;;2.40;;
38853;SDS011;24606;51.992;4.198;2023-03-14T14:45:46;16.83;;;2.30;;
38853;SDS011;24606;51.992;4.198;2023-03-14T14:50:55;31.10;;;3.67;;
38853;SDS011;24606;51.992;4.198;2023-03-14T14:56:04;34.60;;;3.58;;
38853;SDS011;24606;51.992;4.198;2023-03-14T15:01:11;63.00;;;7.35;;
38853;SDS011;24606;51.992;4.198;2023-03-14T15:06:17;8.82;;;2.08;;
38853;SDS011;24606;51.992;4.198;2023-03-14T15:16:25;34.83;;;4.13;;
38853;SDS011;24606;51.992;4.198;2023-03-14T15:21:29;18.73;;;1.98;;
38853;SDS011;24606;51.992;4.198;2023-03-14T15:26:32;16.55;;;1.98;;
38853;SDS011;24606;51.992;4.198;2023-03-14T15:31:34;17.95;;;2.65;;
38853;SDS011;24606;51.992;4.198;2023-03-14T15:36:36;9.32;;;1.27;;
38853;SDS011;24606;51.992;4.198;2023-03-14T15:41:41;13.95;;;2.88;;
38853;SDS011;24606;51.992;4.198;2023-03-14T15:46:43;17.42;;;3.47;;
38853;SDS011;24606;51.992;4.198;2023-03-14T15:51:45;15.98;;;3.55;;
38853;SDS011;24606;51.992;4.198;2023-03-14T15:56:48;12.60;;;1.85;;
38853;SDS011;24606;51.992;4.198;2023-03-14T16:01:52;12.45;;;2.38;;
38853;SDS011;24606;51.992;4.198;2023-03-14T16:06:54;12.07;;;1.67;;
38853;SDS011;24606;51.992;4.198;2023-03-14T16:11:57;15.98;;;3.38;;
38853;SDS011;24606;51.992;4.198;2023-03-14T16:16:59;39.83;;;3.72;;
38853;SDS011;24606;51.992;4.198;2023-03-14T16:22:01;13.18;;;2.08;;
38853;SDS011;24606;51.992;4.198;2023-03-14T16:27:04;8.17;;;1.90;;
38853;SDS011;24606;51.992;4.198;2023-03-14T16:32:06;10.85;;;2.10;;
38853;SDS011;24606;51.992;4.198;2023-03-14T16:37:08;21.00;;;1.97;;
38853;SDS011;24606;51.992;4.198;2023-03-14T16:42:12;12.80;;;2.00;;
38853;SDS011;24606;51.992;4.198;2023-03-14T16:47:14;16.55;;;2.50;;
38853;SDS011;24606;51.992;4.198;2023-03-14T16:52:16;6.50;;;2.03;;
38853;SDS011;24606;51.992;4.198;2023-03-14T16:57:19;10.15;;;1.90;;
38853;SDS011;24606;51.992;4.198;2023-03-14T17:02:21;10.73;;;2.47;;
38853;SDS011;24606;51.992;4.198;2023-03-14T17:07:23;26.05;;;3.03;;
38853;SDS011;24606;51.992;4.198;2023-03-14T17:12:26;19.30;;;2.23;;
38853;SDS011;24606;51.992;4.198;2023-03-14T17:17:28;13.73;;;3.85;;
38853;SDS011;24606;51.992;4.198;2023-03-14T17:22:30;20.40;;;3.20;;
38853;SDS011;24606;51.992;4.198;2023-03-14T17:27:33;17.93;;;3.40;;
38853;SDS011;24606;51.992;4.198;2023-03-14T17:32:35;15.35;;;3.72;;
38853;SDS011;24606;51.992;4.198;2023-03-14T17:37:37;26.53;;;5.67;;
38853;SDS011;24606;51.992;4.198;2023-03-14T17:47:43;30.88;;;5.25;;
38853;SDS011;24606;51.992;4.198;2023-03-14T17:52:45;30.73;;;5.32;;
38853;SDS011;24606;51.992;4.198;2023-03-14T17:57:48;46.07;;;6.50;;
38853;SDS011;24606;51.992;4.198;2023-03-14T18:02:50;19.88;;;2.97;;
38853;SDS011;24606;51.992;4.198;2023-03-14T18:07:51;29.93;;;5.07;;
38853;SDS011;24606;51.992;4.198;2023-03-14T18:12:55;31.30;;;5.17;;
38853;SDS011;24606;51.992;4.198;2023-03-14T18:17:57;37.28;;;6.30;;
38853;SDS011;24606;51.992;4.198;2023-03-14T18:22:58;32.03;;;7.93;;
38853;SDS011;24606;51.992;4.198;2023-03-14T18:28:02;30.00;;;8.98;;
38853;SDS011;24606;51.992;4.198;2023-03-14T18:33:04;27.50;;;6.75;;
38853;SDS011;24606;51.992;4.198;2023-03-14T18:38:06;17.37;;;2.53;;
38853;SDS011;24606;51.992;4.198;2023-03-14T18:43:09;19.50;;;2.47;;
38853;SDS011;24606;51.992;4.198;2023-03-14T18:48:11;28.55;;;6.05;;
38853;SDS011;24606;51.992;4.198;2023-03-14T18:53:13;23.70;;;3.63;;
38853;SDS011;24606;51.992;4.198;2023-03-14T18:58:16;31.73;;;5.28;;
38853;SDS011;24606;51.992;4.198;2023-03-14T19:03:22;33.08;;;6.90;;
38853;SDS011;24606;51.992;4.198;2023-03-14T19:08:26;31.20;;;6.20;;
38853;SDS011;24606;51.992;4.198;2023-03-14T19:13:30;10.70;;;3.28;;
38853;SDS011;24606;51.992;4.198;2023-03-14T19:18:33;27.30;;;7.63;;
38853;SDS011;24606;51.992;4.198;2023-03-14T19:23:36;22.00;;;5.57;;
38853;SDS011;24606;51.992;4.198;2023-03-14T19:28:40;19.90;;;2.88;;
38853;SDS011;24606;51.992;4.198;2023-03-14T19:33:42;17.65;;;4.03;;
38853;SDS011;24606;51.992;4.198;2023-03-14T19:38:44;14.07;;;2.67;;
38853;SDS011;24606;51.992;4.198;2023-03-14T19:43:47;14.10;;;1.83;;
38853;SDS011;24606;51.992;4.198;2023-03-14T19:48:50;13.73;;;2.42;;
38853;SDS011;24606;51.992;4.198;2023-03-14T19:53:53;6.90;;;1.85;;
38853;SDS011;24606;51.992;4.198;2023-03-14T20:04:02;12.77;;;2.13;;
38853;SDS011;24606;51.992;4.198;2023-03-14T20:09:04;13.20;;;2.05;;
38853;SDS011;24606;51.992;4.198;2023-03-14T20:14:13;7.63;;;1.42;;
38853;SDS011;24606;51.992;4.198;2023-03-14T20:19:17;11.20;;;2.03;;
38853;SDS011;24606;51.992;4.198;2023-03-14T20:24:19;4.73;;;1.30;;
38853;SDS011;24606;51.992;4.198;2023-03-14T20:29:23;7.18;;;1.88;;
38853;SDS011;24606;51.992;4.198;2023-03-14T20:34:25;9.55;;;2.45;;
38853;SDS011;24606;51.992;4.198;2023-03-14T20:39:31;12.13;;;1.58;;
38853;SDS011;24606;51.992;4.198;2023-03-14T20:44:34;11.75;;;2.67;;
38853;SDS011;24606;51.992;4.198;2023-03-14T20:49:36;10.07;;;1.58;;
38853;SDS011;24606;51.992;4.198;2023-03-14T20:54:38;11.77;;;1.95;;
38853;SDS011;24606;51.992;4.198;2023-03-14T20:59:41;5.47;;;1.55;;
38853;SDS011;24606;51.992;4.198;2023-03-14T21:04:44;15.80;;;1.75;;
38853;SDS011;24606;51.992;4.198;2023-03-14T21:09:45;4.32;;;1.00;;
38853;SDS011;24606;51.992;4.198;2023-03-14T21:14:49;5.72;;;1.25;;
38853;SDS011;24606;51.992;4.198;2023-03-14T21:19:51;2.95;;;1.20;;
38853;SDS011;24606;51.992;4.198;2023-03-14T21:24:57;3.55;;;0.88;;
38853;SDS011;24606;51.992;4.198;2023-03-14T21:30:00;8.60;;;1.45;;
38853;SDS011;24606;51.992;4.198;2023-03-14T21:40:04;5.68;;;1.13;;
38853;SDS011;24606;51.992;4.198;2023-03-14T21:45:10;10.90;;;1.05;;
38853;SDS011;24606;51.992;4.198;2023-03-14T21:50:12;2.67;;;1.13;;
38853;SDS011;24606;51.992;4.198;2023-03-14T21:55:15;2.63;;;1.03;;
38853;SDS011;24606;51.992;4.198;2023-03-14T22:00:19;3.47;;;1.08;;
38853;SDS011;24606;51.992;4.198;2023-03-14T22:05:21;2.85;;;0.80;;
38853;SDS011;24606;51.992;4.198;2023-03-14T22:10:23;4.05;;;1.30;;
38853;SDS011;24606;51.992;4.198;2023-03-14T22:15:26;3.47;;;0.90;;
38853;SDS011;24606;51.992;4.198;2023-03-14T22:25:30;3.90;;;1.30;;
38853;SDS011;24606;51.992;4.198;2023-03-14T22:30:34;2.78;;;0.90;;
38853;SDS011;24606;51.992;4.198;2023-03-14T22:35:36;5.28;;;1.27;;
38853;SDS011;24606;51.992;4.198;2023-03-14T22:40:38;3.40;;;0.57;;
38853;SDS011;24606;51.992;4.198;2023-03-14T22:45:41;4.53;;;1.00;;
38853;SDS011;24606;51.992;4.198;2023-03-14T22:50:43;4.22;;;1.17;;
38853;SDS011;24606;51.992;4.198;2023-03-14T22:55:45;8.15;;;1.13;;
38853;SDS011;24606;51.992;4.198;2023-03-14T23:00:48;9.07;;;2.20;;
38853;SDS011;24606;51.992;4.198;2023-03-14T23:05:50;1.20;;;0.57;;
38853;SDS011;24606;51.992;4.198;2023-03-14T23:10:58;2.72;;;0.98;;
38853;SDS011;24606;51.992;4.198;2023-03-14T23:16:02;8.38;;;1.77;;
38853;SDS011;24606;51.992;4.198;2023-03-14T23:21:09;3.88;;;0.90;;
38853;SDS011;24606;51.992;4.198;2023-03-14T23:26:13;4.90;;;1.55;;
38853;SDS011;24606;51.992;4.198;2023-03-14T23:31:17;7.25;;;1.45;;
38853;SDS011;24606;51.992;4.198;2023-03-14T23:36:20;7.50;;;1.90;;
38853;SDS011;24606;51.992;4.198;2023-03-14T23:41:22;7.07;;;1.38;;
38853;SDS011;24606;51.992;4.198;2023-03-14T23:46:25;2.60;;;1.02;;
38853;SDS011;24606;51.992;4.198;2023-03-14T23:51:27;2.83;;;1.00;;
38853;SDS011;24606;51.992;4.198;2023-03-14T23:56:29;4.03;;;1.50;;
